sensor_id;sensor_type;location;lat;lon;timestamp;P1;durP1;ratioP1;P2;durP2;ratioP2
23884;SDS011;12123;53.088;7.392;2022-08-21T00:00:48;19.38;;;9.65;;
23884;SDS011;12123;53.088;7.392;2022-08-21T00:03:15;17.05;;;9.50;;
23884;SDS011;12123;53.088;7.392;2022-08-21T00:05:44;13.88;;;9.43;;
23884;SDS011;12123;53.088;7.392;2022-08-21T00:08:11;12.75;;;8.13;;
23884;SDS011;12123;53.088;7.392;2022-08-21T00:10:39;19.02;;;8.30;;
23884;SDS011;12123;53.088;7.392;2022-08-21T00:13:08;11.55;;;7.55;;
23884;SDS011;12123;53.088;7.392;2022-08-21T00:15:36;19.90;;;8.25;;
23884;SDS011;12123;53.088;7.392;2022-08-21T00:18:04;18.77;;;8.68;;
23884;SDS011;12123;53.088;7.392;2022-08-21T00:20:32;19.80;;;8.80;;
23884;SDS011;12123;53.088;7.392;2022-08-21T00:23:00;18.08;;;8.57;;
23884;SDS011;12123;53.088;7.392;2022-08-21T00:25:27;17.08;;;8.02;;
23884;SDS011;12123;53.088;7.392;2022-08-21T00:27:55;16.80;;;8.38;;
23884;SDS011;12123;53.088;7.392;2022-08-21T00:30:23;15.25;;;8.10;;
23884;SDS011;12123;53.088;7.392;2022-08-21T00:32:51;16.10;;;8.43;;
23884;SDS011;12123;53.088;7.392;2022-08-21T00:35:20;17.00;;;8.35;;
23884;SDS011;12123;53.088;7.392;2022-08-21T00:37:47;15.80;;;8.82;;
23884;SDS011;12123;53.088;7.392;2022-08-21T00:40:16;18.20;;;9.02;;
23884;SDS011;12123;53.088;7.392;2022-08-21T00:42:43;14.25;;;8.30;;
23884;SDS011;12123;53.088;7.392;2022-08-21T00:45:18;14.88;;;9.00;;
23884;SDS011;12123;53.088;7.392;2022-08-21T00:47:45;20.50;;;8.85;;
23884;SDS011;12123;53.088;7.392;2022-08-21T00:50:13;22.52;;;9.13;;
23884;SDS011;12123;53.088;7.392;2022-08-21T00:52:47;21.52;;;10.18;;
23884;SDS011;12123;53.088;7.392;2022-08-21T00:55:15;16.80;;;9.95;;
23884;SDS011;12123;53.088;7.392;2022-08-21T00:57:45;19.20;;;9.45;;
23884;SDS011;12123;53.088;7.392;2022-08-21T01:00:17;14.20;;;8.88;;
23884;SDS011;12123;53.088;7.392;2022-08-21T01:02:45;15.95;;;8.93;;
23884;SDS011;12123;53.088;7.392;2022-08-21T01:05:13;16.73;;;9.23;;
23884;SDS011;12123;53.088;7.392;2022-08-21T01:07:41;18.63;;;9.52;;
23884;SDS011;12123;53.088;7.392;2022-08-21T01:10:08;19.58;;;9.38;;
23884;SDS011;12123;53.088;7.392;2022-08-21T01:12:49;19.55;;;10.52;;
23884;SDS011;12123;53.088;7.392;2022-08-21T01:15:17;17.75;;;10.27;;
23884;SDS011;12123;53.088;7.392;2022-08-21T01:17:46;20.13;;;11.13;;
23884;SDS011;12123;53.088;7.392;2022-08-21T01:20:14;18.58;;;10.52;;
23884;SDS011;12123;53.088;7.392;2022-08-21T01:22:42;15.15;;;10.63;;
23884;SDS011;12123;53.088;7.392;2022-08-21T01:25:10;14.93;;;9.73;;
23884;SDS011;12123;53.088;7.392;2022-08-21T01:27:38;18.15;;;10.07;;
23884;SDS011;12123;53.088;7.392;2022-08-21T01:30:16;18.55;;;10.73;;
23884;SDS011;12123;53.088;7.392;2022-08-21T01:32:44;20.30;;;10.75;;
23884;SDS011;12123;53.088;7.392;2022-08-21T01:35:12;19.02;;;10.75;;
23884;SDS011;12123;53.088;7.392;2022-08-21T01:37:40;18.67;;;11.23;;
23884;SDS011;12123;53.088;7.392;2022-08-21T01:40:07;18.55;;;12.48;;
23884;SDS011;12123;53.088;7.392;2022-08-21T01:42:36;16.27;;;10.73;;
23884;SDS011;12123;53.088;7.392;2022-08-21T01:45:04;16.77;;;11.23;;
23884;SDS011;12123;53.088;7.392;2022-08-21T01:47:32;20.38;;;11.27;;
23884;SDS011;12123;53.088;7.392;2022-08-21T01:49:59;21.25;;;11.32;;
23884;SDS011;12123;53.088;7.392;2022-08-21T01:52:26;20.55;;;11.27;;
23884;SDS011;12123;53.088;7.392;2022-08-21T01:54:53;18.90;;;11.18;;
23884;SDS011;12123;53.088;7.392;2022-08-21T01:57:21;19.75;;;11.00;;
23884;SDS011;12123;53.088;7.392;2022-08-21T01:59:51;19.65;;;11.80;;
23884;SDS011;12123;53.088;7.392;2022-08-21T02:02:18;18.52;;;12.05;;
23884;SDS011;12123;53.088;7.392;2022-08-21T02:04:46;19.80;;;12.02;;
23884;SDS011;12123;53.088;7.392;2022-08-21T02:07:13;19.85;;;11.75;;
23884;SDS011;12123;53.088;7.392;2022-08-21T02:09:41;16.88;;;11.45;;
23884;SDS011;12123;53.088;7.392;2022-08-21T02:12:09;17.77;;;12.00;;
23884;SDS011;12123;53.088;7.392;2022-08-21T02:14:36;19.50;;;11.23;;
23884;SDS011;12123;53.088;7.392;2022-08-21T02:17:04;23.35;;;13.18;;
23884;SDS011;12123;53.088;7.392;2022-08-21T02:19:35;20.35;;;11.80;;
23884;SDS011;12123;53.088;7.392;2022-08-21T02:22:06;19.88;;;11.95;;
23884;SDS011;12123;53.088;7.392;2022-08-21T02:24:34;19.38;;;12.50;;
23884;SDS011;12123;53.088;7.392;2022-08-21T02:27:03;23.05;;;13.00;;
23884;SDS011;12123;53.088;7.392;2022-08-21T02:29:31;19.13;;;11.75;;
23884;SDS011;12123;53.088;7.392;2022-08-21T02:31:58;25.58;;;13.45;;
23884;SDS011;12123;53.088;7.392;2022-08-21T02:34:25;21.13;;;12.75;;
23884;SDS011;12123;53.088;7.392;2022-08-21T02:36:54;16.20;;;12.02;;
23884;SDS011;12123;53.088;7.392;2022-08-21T02:39:25;17.63;;;11.52;;
23884;SDS011;12123;53.088;7.392;2022-08-21T02:41:53;23.70;;;13.48;;
23884;SDS011;12123;53.088;7.392;2022-08-21T02:44:20;17.73;;;12.73;;
23884;SDS011;12123;53.088;7.392;2022-08-21T02:46:59;19.30;;;12.13;;
23884;SDS011;12123;53.088;7.392;2022-08-21T02:49:27;15.10;;;11.13;;
23884;SDS011;12123;53.088;7.392;2022-08-21T02:51:54;16.65;;;12.25;;
23884;SDS011;12123;53.088;7.392;2022-08-21T02:54:21;18.95;;;11.55;;
23884;SDS011;12123;53.088;7.392;2022-08-21T02:56:48;20.05;;;13.05;;
23884;SDS011;12123;53.088;7.392;2022-08-21T02:59:15;18.90;;;13.10;;
23884;SDS011;12123;53.088;7.392;2022-08-21T03:01:42;22.70;;;13.10;;
23884;SDS011;12123;53.088;7.392;2022-08-21T03:04:10;20.60;;;12.27;;
23884;SDS011;12123;53.088;7.392;2022-08-21T03:06:37;21.67;;;13.93;;
23884;SDS011;12123;53.088;7.392;2022-08-21T03:09:04;22.73;;;13.73;;
23884;SDS011;12123;53.088;7.392;2022-08-21T03:11:32;19.30;;;12.65;;
23884;SDS011;12123;53.088;7.392;2022-08-21T03:13:59;20.17;;;13.63;;
23884;SDS011;12123;53.088;7.392;2022-08-21T03:16:26;22.42;;;13.75;;
23884;SDS011;12123;53.088;7.392;2022-08-21T03:18:59;19.95;;;12.88;;
23884;SDS011;12123;53.088;7.392;2022-08-21T03:21:27;20.30;;;12.23;;
23884;SDS011;12123;53.088;7.392;2022-08-21T03:23:54;18.88;;;12.98;;
23884;SDS011;12123;53.088;7.392;2022-08-21T03:26:22;17.50;;;12.85;;
23884;SDS011;12123;53.088;7.392;2022-08-21T03:28:50;22.00;;;13.10;;
23884;SDS011;12123;53.088;7.392;2022-08-21T03:31:17;27.17;;;12.75;;
23884;SDS011;12123;53.088;7.392;2022-08-21T03:33:44;19.13;;;12.00;;
23884;SDS011;12123;53.088;7.392;2022-08-21T03:36:12;19.42;;;12.50;;
23884;SDS011;12123;53.088;7.392;2022-08-21T03:38:39;25.10;;;12.32;;
23884;SDS011;12123;53.088;7.392;2022-08-21T03:41:07;19.05;;;12.73;;
23884;SDS011;12123;53.088;7.392;2022-08-21T03:43:35;17.90;;;12.88;;
23884;SDS011;12123;53.088;7.392;2022-08-21T03:46:04;22.58;;;13.25;;
23884;SDS011;12123;53.088;7.392;2022-08-21T03:48:31;26.80;;;12.25;;
23884;SDS011;12123;53.088;7.392;2022-08-21T03:50:59;18.92;;;13.68;;
23884;SDS011;12123;53.088;7.392;2022-08-21T03:53:26;23.92;;;13.52;;
23884;SDS011;12123;53.088;7.392;2022-08-21T03:55:53;23.38;;;12.73;;
23884;SDS011;12123;53.088;7.392;2022-08-21T03:58:22;20.73;;;12.70;;
23884;SDS011;12123;53.088;7.392;2022-08-21T04:00:50;21.17;;;12.88;;
23884;SDS011;12123;53.088;7.392;2022-08-21T04:03:18;22.42;;;13.50;;
23884;SDS011;12123;53.088;7.392;2022-08-21T04:05:46;22.08;;;13.13;;
23884;SDS011;12123;53.088;7.392;2022-08-21T04:08:14;25.13;;;13.20;;
23884;SDS011;12123;53.088;7.392;2022-08-21T04:10:41;20.08;;;13.60;;
23884;SDS011;12123;53.088;7.392;2022-08-21T04:13:09;21.25;;;13.85;;
23884;SDS011;12123;53.088;7.392;2022-08-21T04:15:37;20.95;;;14.02;;
23884;SDS011;12123;53.088;7.392;2022-08-21T04:18:04;25.52;;;13.63;;
23884;SDS011;12123;53.088;7.392;2022-08-21T04:20:31;22.55;;;14.95;;
23884;SDS011;12123;53.088;7.392;2022-08-21T04:22:59;23.48;;;14.60;;
23884;SDS011;12123;53.088;7.392;2022-08-21T04:25:26;25.10;;;14.65;;
23884;SDS011;12123;53.088;7.392;2022-08-21T04:27:53;29.33;;;15.00;;
23884;SDS011;12123;53.088;7.392;2022-08-21T04:30:21;25.20;;;14.90;;
23884;SDS011;12123;53.088;7.392;2022-08-21T04:32:55;21.98;;;13.77;;
23884;SDS011;12123;53.088;7.392;2022-08-21T04:35:23;25.85;;;14.98;;
23884;SDS011;12123;53.088;7.392;2022-08-21T04:37:51;22.48;;;15.32;;
23884;SDS011;12123;53.088;7.392;2022-08-21T04:40:18;20.42;;;13.57;;
23884;SDS011;12123;53.088;7.392;2022-08-21T04:42:47;22.42;;;14.88;;
23884;SDS011;12123;53.088;7.392;2022-08-21T04:45:20;22.55;;;14.32;;
23884;SDS011;12123;53.088;7.392;2022-08-21T04:47:53;23.65;;;15.70;;
23884;SDS011;12123;53.088;7.392;2022-08-21T04:50:22;26.85;;;14.18;;
23884;SDS011;12123;53.088;7.392;2022-08-21T04:52:49;23.17;;;14.10;;
23884;SDS011;12123;53.088;7.392;2022-08-21T04:55:17;24.05;;;15.15;;
23884;SDS011;12123;53.088;7.392;2022-08-21T04:57:45;20.75;;;14.20;;
23884;SDS011;12123;53.088;7.392;2022-08-21T05:00:15;20.73;;;14.75;;
23884;SDS011;12123;53.088;7.392;2022-08-21T05:02:45;22.98;;;14.07;;
23884;SDS011;12123;53.088;7.392;2022-08-21T05:05:14;22.38;;;14.48;;
23884;SDS011;12123;53.088;7.392;2022-08-21T05:07:42;27.70;;;13.40;;
23884;SDS011;12123;53.088;7.392;2022-08-21T05:10:10;21.67;;;13.48;;
23884;SDS011;12123;53.088;7.392;2022-08-21T05:12:39;24.23;;;13.88;;
23884;SDS011;12123;53.088;7.392;2022-08-21T05:15:08;20.35;;;12.90;;
23884;SDS011;12123;53.088;7.392;2022-08-21T05:17:38;18.50;;;11.85;;
23884;SDS011;12123;53.088;7.392;2022-08-21T05:20:06;17.40;;;11.32;;
23884;SDS011;12123;53.088;7.392;2022-08-21T05:22:33;17.02;;;11.23;;
23884;SDS011;12123;53.088;7.392;2022-08-21T05:25:00;17.52;;;10.85;;
23884;SDS011;12123;53.088;7.392;2022-08-21T05:27:35;19.60;;;10.27;;
23884;SDS011;12123;53.088;7.392;2022-08-21T05:30:04;20.35;;;12.10;;
23884;SDS011;12123;53.088;7.392;2022-08-21T05:32:33;18.52;;;10.18;;
23884;SDS011;12123;53.088;7.392;2022-08-21T05:35:01;19.88;;;11.43;;
23884;SDS011;12123;53.088;7.392;2022-08-21T05:37:28;18.27;;;10.35;;
23884;SDS011;12123;53.088;7.392;2022-08-21T05:39:55;15.45;;;9.30;;
23884;SDS011;12123;53.088;7.392;2022-08-21T05:42:42;14.93;;;9.15;;
23884;SDS011;12123;53.088;7.392;2022-08-21T05:45:19;13.35;;;8.15;;
23884;SDS011;12123;53.088;7.392;2022-08-21T05:48:08;17.88;;;8.32;;
23884;SDS011;12123;53.088;7.392;2022-08-21T05:50:35;13.45;;;8.77;;
23884;SDS011;12123;53.088;7.392;2022-08-21T05:53:04;13.35;;;8.88;;
23884;SDS011;12123;53.088;7.392;2022-08-21T05:55:32;12.82;;;8.85;;
23884;SDS011;12123;53.088;7.392;2022-08-21T05:58:00;16.65;;;8.02;;
23884;SDS011;12123;53.088;7.392;2022-08-21T06:00:27;13.07;;;8.07;;
23884;SDS011;12123;53.088;7.392;2022-08-21T06:02:55;13.40;;;7.20;;
23884;SDS011;12123;53.088;7.392;2022-08-21T06:05:23;13.68;;;7.50;;
23884;SDS011;12123;53.088;7.392;2022-08-21T06:08:03;12.68;;;7.20;;
23884;SDS011;12123;53.088;7.392;2022-08-21T06:10:30;12.82;;;6.55;;
23884;SDS011;12123;53.088;7.392;2022-08-21T06:12:58;10.60;;;6.90;;
23884;SDS011;12123;53.088;7.392;2022-08-21T06:15:25;12.65;;;7.05;;
23884;SDS011;12123;53.088;7.392;2022-08-21T06:17:53;16.52;;;6.97;;
23884;SDS011;12123;53.088;7.392;2022-08-21T06:20:20;13.40;;;7.47;;
23884;SDS011;12123;53.088;7.392;2022-08-21T06:22:47;15.50;;;7.30;;
23884;SDS011;12123;53.088;7.392;2022-08-21T06:25:15;11.27;;;7.07;;
23884;SDS011;12123;53.088;7.392;2022-08-21T06:27:42;12.50;;;6.85;;
23884;SDS011;12123;53.088;7.392;2022-08-21T06:30:10;10.65;;;6.90;;
23884;SDS011;12123;53.088;7.392;2022-08-21T06:32:37;17.67;;;7.60;;
23884;SDS011;12123;53.088;7.392;2022-08-21T06:35:05;11.77;;;6.05;;
23884;SDS011;12123;53.088;7.392;2022-08-21T06:37:32;12.75;;;6.35;;
23884;SDS011;12123;53.088;7.392;2022-08-21T06:39:59;13.73;;;6.55;;
23884;SDS011;12123;53.088;7.392;2022-08-21T06:42:27;17.30;;;6.95;;
23884;SDS011;12123;53.088;7.392;2022-08-21T06:44:54;13.07;;;6.30;;
23884;SDS011;12123;53.088;7.392;2022-08-21T06:47:23;13.60;;;6.28;;
23884;SDS011;12123;53.088;7.392;2022-08-21T06:49:51;10.63;;;5.45;;
23884;SDS011;12123;53.088;7.392;2022-08-21T06:52:18;10.48;;;6.10;;
23884;SDS011;12123;53.088;7.392;2022-08-21T06:54:46;10.95;;;5.78;;
23884;SDS011;12123;53.088;7.392;2022-08-21T06:57:13;11.02;;;5.63;;
23884;SDS011;12123;53.088;7.392;2022-08-21T06:59:40;12.43;;;5.47;;
23884;SDS011;12123;53.088;7.392;2022-08-21T07:02:07;11.77;;;5.35;;
23884;SDS011;12123;53.088;7.392;2022-08-21T07:04:34;12.65;;;5.18;;
23884;SDS011;12123;53.088;7.392;2022-08-21T07:07:01;10.45;;;4.78;;
23884;SDS011;12123;53.088;7.392;2022-08-21T07:09:29;9.57;;;5.35;;
23884;SDS011;12123;53.088;7.392;2022-08-21T07:11:56;8.80;;;4.07;;
23884;SDS011;12123;53.088;7.392;2022-08-21T07:14:24;12.15;;;4.80;;
23884;SDS011;12123;53.088;7.392;2022-08-21T07:16:51;11.20;;;4.80;;
23884;SDS011;12123;53.088;7.392;2022-08-21T07:19:18;9.95;;;4.40;;
23884;SDS011;12123;53.088;7.392;2022-08-21T07:21:46;12.32;;;4.75;;
23884;SDS011;12123;53.088;7.392;2022-08-21T07:24:13;14.93;;;4.72;;
23884;SDS011;12123;53.088;7.392;2022-08-21T07:26:40;11.88;;;4.10;;
23884;SDS011;12123;53.088;7.392;2022-08-21T07:29:08;7.88;;;3.47;;
23884;SDS011;12123;53.088;7.392;2022-08-21T07:31:35;10.05;;;3.88;;
23884;SDS011;12123;53.088;7.392;2022-08-21T07:34:02;12.63;;;3.22;;
23884;SDS011;12123;53.088;7.392;2022-08-21T07:36:29;11.00;;;3.08;;
23884;SDS011;12123;53.088;7.392;2022-08-21T07:39:00;12.48;;;3.85;;
23884;SDS011;12123;53.088;7.392;2022-08-21T07:41:28;10.18;;;3.30;;
23884;SDS011;12123;53.088;7.392;2022-08-21T07:43:56;14.10;;;3.25;;
23884;SDS011;12123;53.088;7.392;2022-08-21T07:46:23;9.07;;;2.50;;
23884;SDS011;12123;53.088;7.392;2022-08-21T07:48:52;10.10;;;2.92;;
23884;SDS011;12123;53.088;7.392;2022-08-21T07:51:20;9.40;;;3.55;;
23884;SDS011;12123;53.088;7.392;2022-08-21T07:53:49;8.65;;;2.88;;
23884;SDS011;12123;53.088;7.392;2022-08-21T07:56:16;12.75;;;3.50;;
23884;SDS011;12123;53.088;7.392;2022-08-21T07:58:44;9.27;;;2.63;;
23884;SDS011;12123;53.088;7.392;2022-08-21T08:01:11;8.35;;;2.90;;
23884;SDS011;12123;53.088;7.392;2022-08-21T08:03:38;10.13;;;3.00;;
23884;SDS011;12123;53.088;7.392;2022-08-21T08:06:06;8.70;;;2.40;;
23884;SDS011;12123;53.088;7.392;2022-08-21T08:08:38;8.48;;;2.55;;
23884;SDS011;12123;53.088;7.392;2022-08-21T08:11:07;9.10;;;2.67;;
23884;SDS011;12123;53.088;7.392;2022-08-21T08:13:40;10.07;;;2.63;;
23884;SDS011;12123;53.088;7.392;2022-08-21T08:16:08;7.50;;;2.50;;
23884;SDS011;12123;53.088;7.392;2022-08-21T08:18:35;8.77;;;2.78;;
23884;SDS011;12123;53.088;7.392;2022-08-21T08:21:02;11.95;;;3.22;;
23884;SDS011;12123;53.088;7.392;2022-08-21T08:23:31;7.32;;;2.15;;
23884;SDS011;12123;53.088;7.392;2022-08-21T08:25:59;7.03;;;2.40;;
23884;SDS011;12123;53.088;7.392;2022-08-21T08:28:26;11.90;;;2.85;;
23884;SDS011;12123;53.088;7.392;2022-08-21T08:30:53;9.75;;;2.70;;
23884;SDS011;12123;53.088;7.392;2022-08-21T08:33:21;10.73;;;2.20;;
23884;SDS011;12123;53.088;7.392;2022-08-21T08:35:49;13.05;;;3.63;;
23884;SDS011;12123;53.088;7.392;2022-08-21T08:38:18;8.85;;;2.53;;
23884;SDS011;12123;53.088;7.392;2022-08-21T08:43:29;8.00;;;2.75;;
23884;SDS011;12123;53.088;7.392;2022-08-21T08:45:57;13.20;;;2.70;;
23884;SDS011;12123;53.088;7.392;2022-08-21T08:48:36;8.77;;;2.60;;
23884;SDS011;12123;53.088;7.392;2022-08-21T08:51:06;12.32;;;2.95;;
23884;SDS011;12123;53.088;7.392;2022-08-21T08:53:42;9.27;;;2.67;;
23884;SDS011;12123;53.088;7.392;2022-08-21T08:56:10;13.23;;;2.70;;
23884;SDS011;12123;53.088;7.392;2022-08-21T08:58:39;9.80;;;2.20;;
23884;SDS011;12123;53.088;7.392;2022-08-21T09:01:11;8.68;;;2.08;;
23884;SDS011;12123;53.088;7.392;2022-08-21T09:03:40;9.05;;;2.45;;
23884;SDS011;12123;53.088;7.392;2022-08-21T09:06:13;9.40;;;2.33;;
23884;SDS011;12123;53.088;7.392;2022-08-21T09:11:27;7.32;;;2.28;;
23884;SDS011;12123;53.088;7.392;2022-08-21T09:14:08;6.63;;;2.30;;
23884;SDS011;12123;53.088;7.392;2022-08-21T09:16:47;5.97;;;2.30;;
23884;SDS011;12123;53.088;7.392;2022-08-21T09:21:58;6.13;;;2.28;;
23884;SDS011;12123;53.088;7.392;2022-08-21T09:29:25;9.55;;;2.15;;
23884;SDS011;12123;53.088;7.392;2022-08-21T09:31:55;7.30;;;2.35;;
23884;SDS011;12123;53.088;7.392;2022-08-21T09:34:24;9.30;;;2.30;;
23884;SDS011;12123;53.088;7.392;2022-08-21T09:36:51;5.90;;;2.00;;
23884;SDS011;12123;53.088;7.392;2022-08-21T09:39:24;8.40;;;2.17;;
23884;SDS011;12123;53.088;7.392;2022-08-21T09:41:59;9.75;;;2.17;;
23884;SDS011;12123;53.088;7.392;2022-08-21T09:44:27;7.28;;;1.73;;
23884;SDS011;12123;53.088;7.392;2022-08-21T09:46:55;7.32;;;1.83;;
23884;SDS011;12123;53.088;7.392;2022-08-21T09:49:29;6.35;;;2.17;;
23884;SDS011;12123;53.088;7.392;2022-08-21T09:51:57;7.85;;;2.50;;
23884;SDS011;12123;53.088;7.392;2022-08-21T09:54:35;5.70;;;2.25;;
23884;SDS011;12123;53.088;7.392;2022-08-21T09:57:11;6.72;;;1.75;;
23884;SDS011;12123;53.088;7.392;2022-08-21T10:00:07;9.35;;;2.10;;
23884;SDS011;12123;53.088;7.392;2022-08-21T10:02:35;7.30;;;1.70;;
23884;SDS011;12123;53.088;7.392;2022-08-21T10:05:15;8.30;;;2.13;;
23884;SDS011;12123;53.088;7.392;2022-08-21T10:07:42;6.40;;;1.50;;
23884;SDS011;12123;53.088;7.392;2022-08-21T10:12:53;6.40;;;1.95;;
23884;SDS011;12123;53.088;7.392;2022-08-21T10:20:46;5.55;;;2.03;;
23884;SDS011;12123;53.088;7.392;2022-08-21T10:39:18;7.47;;;2.35;;
23884;SDS011;12123;53.088;7.392;2022-08-21T10:52:22;5.60;;;1.48;;
23884;SDS011;12123;53.088;7.392;2022-08-21T10:54:56;6.38;;;1.95;;
23884;SDS011;12123;53.088;7.392;2022-08-21T10:57:27;4.80;;;1.45;;
23884;SDS011;12123;53.088;7.392;2022-08-21T11:00:04;4.40;;;1.52;;
23884;SDS011;12123;53.088;7.392;2022-08-21T11:02:37;7.07;;;1.60;;
23884;SDS011;12123;53.088;7.392;2022-08-21T11:05:16;6.10;;;1.70;;
23884;SDS011;12123;53.088;7.392;2022-08-21T11:07:47;6.70;;;1.77;;
23884;SDS011;12123;53.088;7.392;2022-08-21T11:10:21;6.70;;;1.60;;
23884;SDS011;12123;53.088;7.392;2022-08-21T11:12:54;4.65;;;1.70;;
23884;SDS011;12123;53.088;7.392;2022-08-21T11:15:29;4.35;;;1.40;;
23884;SDS011;12123;53.088;7.392;2022-08-21T11:18:13;5.38;;;1.63;;
23884;SDS011;12123;53.088;7.392;2022-08-21T11:20:50;6.43;;;1.55;;
23884;SDS011;12123;53.088;7.392;2022-08-21T11:23:23;7.60;;;1.83;;
23884;SDS011;12123;53.088;7.392;2022-08-21T11:25:53;6.22;;;1.73;;
23884;SDS011;12123;53.088;7.392;2022-08-21T11:28:26;5.80;;;1.65;;
23884;SDS011;12123;53.088;7.392;2022-08-21T11:31:02;5.97;;;2.10;;
23884;SDS011;12123;53.088;7.392;2022-08-21T11:36:08;5.70;;;1.88;;
23884;SDS011;12123;53.088;7.392;2022-08-21T11:51:36;3.75;;;1.45;;
23884;SDS011;12123;53.088;7.392;2022-08-21T11:56:54;4.82;;;1.33;;
23884;SDS011;12123;53.088;7.392;2022-08-21T11:59:45;3.50;;;1.40;;
23884;SDS011;12123;53.088;7.392;2022-08-21T12:02:12;3.83;;;1.30;;
23884;SDS011;12123;53.088;7.392;2022-08-21T12:04:47;4.53;;;1.50;;
23884;SDS011;12123;53.088;7.392;2022-08-21T12:07:27;5.75;;;1.33;;
23884;SDS011;12123;53.088;7.392;2022-08-21T12:09:57;3.45;;;1.10;;
23884;SDS011;12123;53.088;7.392;2022-08-21T12:12:28;4.63;;;1.60;;
23884;SDS011;12123;53.088;7.392;2022-08-21T12:17:36;3.78;;;1.30;;
23884;SDS011;12123;53.088;7.392;2022-08-21T12:20:17;4.85;;;1.77;;
23884;SDS011;12123;53.088;7.392;2022-08-21T12:23:03;5.70;;;1.17;;
23884;SDS011;12123;53.088;7.392;2022-08-21T12:25:39;4.75;;;1.73;;
23884;SDS011;12123;53.088;7.392;2022-08-21T12:28:11;5.45;;;1.40;;
23884;SDS011;12123;53.088;7.392;2022-08-21T12:30:40;3.47;;;1.10;;
23884;SDS011;12123;53.088;7.392;2022-08-21T12:36:02;5.38;;;1.60;;
23884;SDS011;12123;53.088;7.392;2022-08-21T12:38:34;5.65;;;1.40;;
23884;SDS011;12123;53.088;7.392;2022-08-21T12:41:09;2.00;;;1.17;;
23884;SDS011;12123;53.088;7.392;2022-08-21T12:43:44;5.45;;;1.90;;
23884;SDS011;12123;53.088;7.392;2022-08-21T12:46:17;4.90;;;1.40;;
23884;SDS011;12123;53.088;7.392;2022-08-21T12:48:47;4.20;;;1.30;;
23884;SDS011;12123;53.088;7.392;2022-08-21T12:51:21;5.47;;;1.52;;
23884;SDS011;12123;53.088;7.392;2022-08-21T12:53:53;4.85;;;1.80;;
23884;SDS011;12123;53.088;7.392;2022-08-21T12:56:22;9.00;;;1.70;;
23884;SDS011;12123;53.088;7.392;2022-08-21T12:58:56;3.90;;;1.23;;
23884;SDS011;12123;53.088;7.392;2022-08-21T13:01:27;3.05;;;1.08;;
23884;SDS011;12123;53.088;7.392;2022-08-21T13:03:57;3.25;;;1.15;;
23884;SDS011;12123;53.088;7.392;2022-08-21T13:06:32;5.07;;;1.05;;
23884;SDS011;12123;53.088;7.392;2022-08-21T13:09:04;4.68;;;1.45;;
23884;SDS011;12123;53.088;7.392;2022-08-21T13:11:32;5.78;;;1.27;;
23884;SDS011;12123;53.088;7.392;2022-08-21T13:14:00;3.70;;;1.02;;
23884;SDS011;12123;53.088;7.392;2022-08-21T13:16:30;5.38;;;1.40;;
23884;SDS011;12123;53.088;7.392;2022-08-21T13:19:02;4.78;;;1.27;;
23884;SDS011;12123;53.088;7.392;2022-08-21T13:21:31;3.13;;;1.33;;
23884;SDS011;12123;53.088;7.392;2022-08-21T13:24:10;7.43;;;1.42;;
23884;SDS011;12123;53.088;7.392;2022-08-21T13:26:57;5.45;;;1.50;;
23884;SDS011;12123;53.088;7.392;2022-08-21T13:29:31;7.80;;;1.73;;
23884;SDS011;12123;53.088;7.392;2022-08-21T13:32:04;5.47;;;1.45;;
23884;SDS011;12123;53.088;7.392;2022-08-21T13:34:34;3.45;;;1.35;;
23884;SDS011;12123;53.088;7.392;2022-08-21T13:37:06;7.13;;;1.92;;
23884;SDS011;12123;53.088;7.392;2022-08-21T13:39:34;4.78;;;1.40;;
23884;SDS011;12123;53.088;7.392;2022-08-21T13:42:04;5.20;;;1.58;;
23884;SDS011;12123;53.088;7.392;2022-08-21T13:44:43;4.00;;;1.25;;
23884;SDS011;12123;53.088;7.392;2022-08-21T13:47:11;5.85;;;1.88;;
23884;SDS011;12123;53.088;7.392;2022-08-21T13:49:40;5.22;;;1.50;;
23884;SDS011;12123;53.088;7.392;2022-08-21T13:52:19;5.90;;;1.58;;
23884;SDS011;12123;53.088;7.392;2022-08-21T13:54:57;6.13;;;1.60;;
23884;SDS011;12123;53.088;7.392;2022-08-21T13:57:26;6.60;;;1.50;;
23884;SDS011;12123;53.088;7.392;2022-08-21T14:00:09;3.60;;;1.50;;
23884;SDS011;12123;53.088;7.392;2022-08-21T14:02:38;6.03;;;1.70;;
23884;SDS011;12123;53.088;7.392;2022-08-21T14:05:06;7.25;;;1.40;;
23884;SDS011;12123;53.088;7.392;2022-08-21T14:07:35;4.78;;;1.40;;
23884;SDS011;12123;53.088;7.392;2022-08-21T14:10:03;6.55;;;1.98;;
23884;SDS011;12123;53.088;7.392;2022-08-21T14:12:32;4.32;;;1.27;;
23884;SDS011;12123;53.088;7.392;2022-08-21T14:15:03;6.35;;;1.30;;
23884;SDS011;12123;53.088;7.392;2022-08-21T14:17:32;6.47;;;1.58;;
23884;SDS011;12123;53.088;7.392;2022-08-21T14:20:00;6.05;;;1.27;;
23884;SDS011;12123;53.088;7.392;2022-08-21T14:22:38;7.32;;;1.70;;
23884;SDS011;12123;53.088;7.392;2022-08-21T14:27:40;6.40;;;1.83;;
23884;SDS011;12123;53.088;7.392;2022-08-21T14:30:12;10.10;;;1.80;;
23884;SDS011;12123;53.088;7.392;2022-08-21T14:32:40;7.13;;;2.60;;
23884;SDS011;12123;53.088;7.392;2022-08-21T14:35:11;5.40;;;1.65;;
23884;SDS011;12123;53.088;7.392;2022-08-21T14:37:42;6.47;;;1.80;;
23884;SDS011;12123;53.088;7.392;2022-08-21T14:40:10;8.63;;;1.83;;
23884;SDS011;12123;53.088;7.392;2022-08-21T14:42:41;5.05;;;1.70;;
23884;SDS011;12123;53.088;7.392;2022-08-21T14:45:16;11.43;;;2.00;;
23884;SDS011;12123;53.088;7.392;2022-08-21T14:47:52;11.82;;;2.50;;
23884;SDS011;12123;53.088;7.392;2022-08-21T14:50:19;9.65;;;2.20;;
23884;SDS011;12123;53.088;7.392;2022-08-21T14:52:47;6.18;;;2.08;;
23884;SDS011;12123;53.088;7.392;2022-08-21T14:55:15;6.75;;;1.90;;
23884;SDS011;12123;53.088;7.392;2022-08-21T14:57:46;4.80;;;1.77;;
23884;SDS011;12123;53.088;7.392;2022-08-21T15:00:15;9.20;;;2.33;;
23884;SDS011;12123;53.088;7.392;2022-08-21T15:02:43;8.77;;;1.92;;
23884;SDS011;12123;53.088;7.392;2022-08-21T15:05:11;8.88;;;2.55;;
23884;SDS011;12123;53.088;7.392;2022-08-21T15:07:40;7.93;;;2.42;;
23884;SDS011;12123;53.088;7.392;2022-08-21T15:10:07;7.57;;;2.13;;
23884;SDS011;12123;53.088;7.392;2022-08-21T15:12:35;7.13;;;2.33;;
23884;SDS011;12123;53.088;7.392;2022-08-21T15:15:04;8.38;;;2.25;;
23884;SDS011;12123;53.088;7.392;2022-08-21T15:17:32;8.63;;;2.13;;
23884;SDS011;12123;53.088;7.392;2022-08-21T15:19:59;8.48;;;2.08;;
23884;SDS011;12123;53.088;7.392;2022-08-21T15:22:26;9.23;;;2.38;;
23884;SDS011;12123;53.088;7.392;2022-08-21T15:24:54;8.07;;;2.00;;
23884;SDS011;12123;53.088;7.392;2022-08-21T15:27:21;11.85;;;2.38;;
23884;SDS011;12123;53.088;7.392;2022-08-21T15:29:48;6.60;;;1.95;;
23884;SDS011;12123;53.088;7.392;2022-08-21T15:32:19;7.88;;;2.00;;
23884;SDS011;12123;53.088;7.392;2022-08-21T15:34:49;7.05;;;2.33;;
23884;SDS011;12123;53.088;7.392;2022-08-21T15:37:16;7.05;;;2.28;;
23884;SDS011;12123;53.088;7.392;2022-08-21T15:39:43;10.45;;;2.85;;
23884;SDS011;12123;53.088;7.392;2022-08-21T15:42:19;7.90;;;2.17;;
23884;SDS011;12123;53.088;7.392;2022-08-21T15:44:46;10.98;;;2.20;;
23884;SDS011;12123;53.088;7.392;2022-08-21T15:47:15;6.88;;;2.30;;
23884;SDS011;12123;53.088;7.392;2022-08-21T15:49:43;7.32;;;2.20;;
23884;SDS011;12123;53.088;7.392;2022-08-21T15:52:12;6.65;;;1.85;;
23884;SDS011;12123;53.088;7.392;2022-08-21T15:54:40;5.85;;;1.90;;
23884;SDS011;12123;53.088;7.392;2022-08-21T15:57:09;8.45;;;2.10;;
23884;SDS011;12123;53.088;7.392;2022-08-21T15:59:41;7.38;;;2.13;;
23884;SDS011;12123;53.088;7.392;2022-08-21T16:02:10;6.35;;;2.00;;
23884;SDS011;12123;53.088;7.392;2022-08-21T16:04:39;7.32;;;1.80;;